Time;durP1;ratioP1;P1;durP2;ratioP2;P2;SDS_P1;SDS_P2;PMS_P1;PMS_P2;Temp;Humidity;BMP_temperature;BMP_pressure;BME280_temperature;BME280_humidity;BME280_pressure;Samples;Min_cycle;Max_cycle;Signal;HPM_P1;HPM_P2
2021/09/23 00:00:46;;;;;;;12.27;7.50;;;12.10;99.90;;;;;;5032664;28;20532;-77
2021/09/23 00:03:31;;;;;;;14.00;8.00;;;12.00;99.90;;;;;;5033444;28;20527;-77
2021/09/23 00:05:59;;;;;;;19.33;8.10;;;12.00;99.90;;;;;;5025506;28;20507;-77
2021/09/23 00:08:25;;;;;;;12.60;7.20;;;12.10;99.90;;;;;;5033205;28;20485;-77
2021/09/23 00:10:52;;;;;;;13.40;6.80;;;12.00;99.90;;;;;;5033345;28;20537;-78
2021/09/23 00:13:20;;;;;;;14.70;7.50;;;12.00;99.90;;;;;;5033236;28;20478;-78
2021/09/23 00:15:47;;;;;;;12.17;7.40;;;12.00;99.90;;;;;;5032980;28;20564;-78
2021/09/23 00:18:16;;;;;;;15.13;7.67;;;12.00;99.90;;;;;;5033003;28;20480;-78
2021/09/23 00:20:44;;;;;;;12.20;7.03;;;12.00;99.90;;;;;;5033222;28;20959;-78
2021/09/23 00:23:11;;;;;;;10.97;7.47;;;12.00;99.90;;;;;;5032991;28;20894;-78
2021/09/23 00:25:39;;;;;;;13.37;8.10;;;12.00;99.90;;;;;;5033134;28;20540;-78
2021/09/23 00:28:08;;;;;;;13.53;8.00;;;12.00;99.90;;;;;;5033041;28;20481;-78
2021/09/23 00:30:37;;;;;;;12.53;8.57;;;12.00;99.90;;;;;;5032854;28;20531;-78
2021/09/23 00:33:04;;;;;;;10.90;8.93;;;12.00;99.90;;;;;;5032677;28;20928;-78
2021/09/23 00:35:30;;;;;;;11.07;8.50;;;12.10;99.90;;;;;;5032741;28;20449;-78
2021/09/23 00:37:57;;;;;;;10.33;7.70;;;12.00;99.90;;;;;;5031738;28;20449;-78
2021/09/23 00:40:23;;;;;;;10.40;7.53;;;12.00;99.90;;;;;;5030626;28;20473;-78
2021/09/23 00:42:50;;;;;;;15.37;7.90;;;12.00;99.90;;;;;;5032285;28;20583;-78
2021/09/23 00:45:18;;;;;;;9.23;8.10;;;12.00;99.90;;;;;;5032161;28;20535;-78
2021/09/23 00:47:46;;;;;;;13.93;8.60;;;12.00;99.90;;;;;;5032580;28;20449;-78
2021/09/23 00:50:13;;;;;;;11.40;7.50;;;12.00;99.90;;;;;;5032603;28;20536;-78
2021/09/23 00:52:40;;;;;;;12.13;9.30;;;12.00;99.90;;;;;;5032469;28;20441;-78
2021/09/23 00:55:09;;;;;;;14.57;8.23;;;11.90;99.90;;;;;;5032507;28;20449;-78
2021/09/23 00:57:36;;;;;;;11.57;7.50;;;11.90;99.90;;;;;;5032173;28;20511;-78
2021/09/23 01:00:04;;;;;;;12.60;8.17;;;11.90;99.90;;;;;;5032007;28;20540;-78
2021/09/23 01:02:30;;;;;;;13.07;8.20;;;11.80;99.90;;;;;;5032155;28;20544;-77
2021/09/23 01:04:58;;;;;;;11.70;8.70;;;11.80;99.90;;;;;;5032476;28;20882;-77
2021/09/23 01:07:25;;;;;;;11.87;8.57;;;11.80;99.90;;;;;;5028424;28;20532;-77
2021/09/23 01:09:53;;;;;;;13.87;8.03;;;11.80;99.90;;;;;;5020259;28;20540;-77
2021/09/23 01:12:22;;;;;;;12.37;8.10;;;11.80;99.90;;;;;;5031840;28;20485;-78
2021/09/23 01:14:49;;;;;;;10.83;7.50;;;11.70;99.90;;;;;;5032062;28;20566;-78
2021/09/23 01:17:16;;;;;;;16.73;9.90;;;11.80;99.90;;;;;;5032096;28;20759;-78
2021/09/23 01:19:44;;;;;;;13.57;9.60;;;11.70;99.90;;;;;;5032111;28;20532;-78
2021/09/23 01:22:17;;;;;;;12.40;8.43;;;11.70;99.90;;;;;;5032009;28;20532;-78
2021/09/23 01:24:44;;;;;;;12.30;9.07;;;11.70;99.90;;;;;;5032156;28;20571;-78
2021/09/23 01:27:13;;;;;;;11.03;8.30;;;11.70;99.90;;;;;;5031952;28;20449;-77
2021/09/23 01:29:41;;;;;;;13.47;8.27;;;11.70;99.90;;;;;;5032094;28;20536;-78
2021/09/23 01:32:09;;;;;;;11.87;9.17;;;11.70;99.90;;;;;;5031941;28;20495;-78
2021/09/23 01:34:36;;;;;;;12.50;8.30;;;11.70;99.90;;;;;;5032047;28;20476;-77
2021/09/23 01:37:03;;;;;;;12.30;9.57;;;11.70;99.90;;;;;;5031788;28;20536;-77
2021/09/23 01:39:31;;;;;;;16.53;9.63;;;11.70;99.90;;;;;;5031656;28;20473;-77
2021/09/23 01:41:58;;;;;;;14.53;10.13;;;11.60;99.90;;;;;;5031944;28;20850;-78
2021/09/23 01:44:25;;;;;;;13.43;9.23;;;11.70;99.90;;;;;;5031552;28;20489;-78
2021/09/23 01:46:51;;;;;;;16.10;9.83;;;11.70;99.90;;;;;;5031710;28;20499;-78
2021/09/23 01:49:18;;;;;;;16.93;9.83;;;11.60;99.90;;;;;;5031737;28;20457;-78
2021/09/23 01:51:45;;;;;;;11.77;9.60;;;11.60;99.90;;;;;;5031617;28;20523;-78
2021/09/23 01:54:12;;;;;;;11.10;9.77;;;11.60;99.90;;;;;;5031478;28;20453;-79
2021/09/23 01:56:40;;;;;;;12.70;9.20;;;11.60;99.90;;;;;;5031739;28;20551;-79
2021/09/23 01:59:06;;;;;;;14.00;11.37;;;11.60;99.90;;;;;;5030662;28;20517;-77
2021/09/23 02:01:33;;;;;;;12.77;10.70;;;11.60;99.90;;;;;;5031573;28;20706;-77
2021/09/23 02:04:00;;;;;;;13.10;10.07;;;11.50;99.90;;;;;;5031420;28;20579;-77
2021/09/23 02:06:26;;;;;;;16.60;9.30;;;11.60;99.90;;;;;;5031466;28;20446;-78
2021/09/23 02:08:55;;;;;;;13.73;10.57;;;11.50;99.90;;;;;;5031520;28;20449;-78
2021/09/23 02:11:22;;;;;;;16.30;11.27;;;11.50;99.90;;;;;;5031638;28;20891;-78
2021/09/23 02:13:50;;;;;;;15.23;11.73;;;11.50;99.90;;;;;;5031680;28;20449;-78
2021/09/23 02:16:16;;;;;;;16.67;11.90;;;11.50;99.90;;;;;;5031600;28;20544;-78
2021/09/23 02:18:43;;;;;;;16.23;11.20;;;11.50;99.90;;;;;;5031557;28;21018;-78
2021/09/23 02:21:10;;;;;;;15.43;10.30;;;11.50;99.90;;;;;;5031515;28;20449;-78
2021/09/23 02:23:36;;;;;;;14.33;10.90;;;11.50;99.90;;;;;;5034162;28;20500;-77
2021/09/23 02:26:03;;;;;;;16.83;11.43;;;11.50;99.90;;;;;;5035368;28;20503;-77
2021/09/23 02:28:30;;;;;;;15.80;11.10;;;11.40;99.90;;;;;;5034928;28;20875;-77
2021/09/23 02:30:58;;;;;;;20.53;11.60;;;11.40;99.90;;;;;;5035006;28;20449;-78
2021/09/23 02:33:25;;;;;;;17.43;12.50;;;11.40;99.90;;;;;;5035151;28;20536;-78
2021/09/23 02:35:51;;;;;;;26.33;13.77;;;11.30;99.90;;;;;;5034823;28;20469;-78
2021/09/23 02:38:18;;;;;;;14.90;13.20;;;11.40;99.90;;;;;;5035004;28;20445;-77
2021/09/23 02:40:46;;;;;;;18.90;13.10;;;11.40;99.90;;;;;;5035009;28;20805;-78
2021/09/23 02:43:13;;;;;;;17.40;13.10;;;11.30;99.90;;;;;;5034643;28;20456;-78
2021/09/23 02:45:39;;;;;;;18.47;12.33;;;11.40;99.90;;;;;;5034644;28;20564;-78
2021/09/23 02:48:07;;;;;;;19.90;13.50;;;11.30;99.90;;;;;;5034673;28;20544;-78
2021/09/23 02:50:34;;;;;;;18.00;12.53;;;11.30;99.90;;;;;;5034651;28;20632;-78
2021/09/23 02:53:00;;;;;;;16.80;13.83;;;11.30;99.90;;;;;;5034775;28;20540;-77
2021/09/23 02:55:27;;;;;;;21.17;14.00;;;11.30;99.90;;;;;;5034663;28;20543;-77
2021/09/23 02:57:53;;;;;;;18.80;14.57;;;11.30;99.90;;;;;;5034545;28;20488;-77
2021/09/23 03:00:20;;;;;;;17.13;14.20;;;11.30;99.90;;;;;;5034363;28;20532;-77
2021/09/23 03:02:47;;;;;;;20.17;14.30;;;11.30;99.90;;;;;;5034318;28;20723;-77
2021/09/23 03:05:15;;;;;;;19.83;14.90;;;11.30;99.90;;;;;;5034061;28;20560;-77
2021/09/23 03:07:41;;;;;;;21.23;15.33;;;11.30;99.90;;;;;;5034474;28;20540;-77
2021/09/23 03:10:08;;;;;;;18.20;15.80;;;11.30;99.90;;;;;;5034349;28;20537;-77
2021/09/23 03:12:35;;;;;;;23.83;15.80;;;11.30;99.90;;;;;;5034399;28;20545;-77
2021/09/23 03:15:02;;;;;;;22.20;16.40;;;11.30;99.90;;;;;;5034230;28;20865;-77
2021/09/23 03:17:28;;;;;;;20.80;16.57;;;11.30;99.90;;;;;;5033936;28;20532;-78
2021/09/23 03:19:55;;;;;;;19.17;16.50;;;11.20;99.90;;;;;;5033817;28;20572;-78
2021/09/23 03:22:23;;;;;;;21.23;17.97;;;11.30;99.90;;;;;;5034226;28;20503;-77
2021/09/23 03:24:49;;;;;;;20.07;15.70;;;11.20;99.90;;;;;;5034112;28;20476;-77
2021/09/23 03:27:16;;;;;;;22.23;17.33;;;11.20;99.90;;;;;;5033796;28;20518;-78
2021/09/23 03:29:45;;;;;;;21.90;16.20;;;11.20;99.90;;;;;;5033427;28;20813;-78
2021/09/23 03:32:11;;;;;;;28.23;16.83;;;11.20;99.90;;;;;;5033720;28;20540;-78
2021/09/23 03:34:38;;;;;;;22.03;16.87;;;11.20;99.90;;;;;;5032911;28;20485;-78
2021/09/23 03:37:05;;;;;;;26.20;18.10;;;11.10;99.90;;;;;;5033944;28;20511;-78
2021/09/23 03:39:33;;;;;;;20.47;16.60;;;11.10;99.90;;;;;;5033809;28;20477;-78
2021/09/23 03:41:59;;;;;;;22.30;18.00;;;11.10;99.90;;;;;;5033755;28;20449;-78
2021/09/23 03:44:26;;;;;;;27.80;18.67;;;11.10;99.90;;;;;;5033231;28;20517;-78
2021/09/23 03:46:55;;;;;;;27.50;18.30;;;11.20;99.90;;;;;;5033601;28;21137;-77
2021/09/23 03:49:22;;;;;;;24.87;18.60;;;11.20;99.90;;;;;;5033642;28;20495;-78
2021/09/23 03:51:49;;;;;;;26.10;18.17;;;11.20;99.90;;;;;;5033566;28;20887;-78
2021/09/23 03:54:15;;;;;;;22.83;19.13;;;11.10;99.90;;;;;;5033468;28;20477;-78
2021/09/23 03:56:43;;;;;;;22.33;18.43;;;11.20;99.90;;;;;;5033564;28;20441;-78
2021/09/23 03:59:10;;;;;;;26.40;19.70;;;11.20;99.90;;;;;;5033163;28;20441;-78
2021/09/23 04:01:37;;;;;;;27.97;19.73;;;11.20;99.90;;;;;;5033309;28;20452;-78
2021/09/23 04:04:04;;;;;;;24.77;19.60;;;11.20;99.90;;;;;;5032637;28;20565;-78
2021/09/23 04:06:31;;;;;;;23.17;19.00;;;11.10;99.90;;;;;;5031380;28;20473;-77
2021/09/23 04:08:57;;;;;;;30.50;19.90;;;11.10;99.90;;;;;;5031759;28;20540;-78
2021/09/23 04:11:24;;;;;;;28.20;21.47;;;11.10;99.90;;;;;;5030790;28;20888;-77
2021/09/23 04:13:52;;;;;;;26.83;20.67;;;11.10;99.90;;;;;;5030549;28;20485;-78
2021/09/23 04:16:19;;;;;;;25.67;18.57;;;11.10;99.90;;;;;;5032738;28;20456;-78
2021/09/23 04:18:46;;;;;;;25.93;20.87;;;11.10;99.90;;;;;;5032919;28;20453;-78
2021/09/23 04:21:12;;;;;;;30.10;20.53;;;11.20;99.90;;;;;;5033357;28;20882;-78
2021/09/23 04:23:39;;;;;;;28.30;21.53;;;11.10;99.90;;;;;;5033177;28;20998;-78
2021/09/23 04:26:05;;;;;;;32.90;21.50;;;11.20;99.90;;;;;;5033214;28;20889;-78
2021/09/23 04:28:32;;;;;;;34.20;21.17;;;11.20;99.90;;;;;;5033347;28;20866;-77
2021/09/23 04:31:00;;;;;;;30.17;21.57;;;11.10;99.90;;;;;;5031068;28;20484;-78
2021/09/23 04:33:28;;;;;;;30.30;22.50;;;11.10;99.90;;;;;;5032980;28;20548;-78
2021/09/23 04:35:54;;;;;;;31.50;22.97;;;11.10;99.90;;;;;;5032938;28;20453;-78
2021/09/23 04:38:21;;;;;;;31.97;22.70;;;11.10;99.90;;;;;;5033020;28;20445;-78
2021/09/23 04:40:49;;;;;;;31.57;22.97;;;11.20;99.90;;;;;;5032774;28;20485;-78
2021/09/23 04:43:15;;;;;;;30.07;21.07;;;11.10;99.90;;;;;;5033125;28;20481;-77
2021/09/23 04:45:42;;;;;;;32.40;24.03;;;11.10;99.90;;;;;;5031682;28;20527;-78
2021/09/23 04:48:10;;;;;;;34.20;24.20;;;11.10;99.90;;;;;;5032303;28;20533;-78
2021/09/23 04:50:36;;;;;;;40.47;30.03;;;11.10;99.90;;;;;;5037505;28;20532;-78
2021/09/23 04:53:03;;;;;;;46.10;35.57;;;11.10;99.90;;;;;;5032384;28;20516;-79
2021/09/23 04:55:29;;;;;;;38.43;28.43;;;11.10;99.90;;;;;;5029236;28;20537;-79
2021/09/23 04:57:56;;;;;;;31.47;24.27;;;11.10;99.90;;;;;;5032475;28;20873;-79
2021/09/23 05:00:23;;;;;;;33.57;23.70;;;11.20;99.90;;;;;;5032251;28;20866;-79
2021/09/23 05:02:49;;;;;;;33.00;24.87;;;11.30;99.90;;;;;;5029642;28;20456;-79
2021/09/23 05:05:17;;;;;;;36.10;24.73;;;11.30;99.90;;;;;;5031941;28;20516;-78
2021/09/23 05:07:44;;;;;;;38.00;26.53;;;11.30;99.90;;;;;;5032592;28;20949;-82
2021/09/23 05:10:13;;;;;;;33.40;25.27;;;11.30;99.90;;;;;;5032233;28;20537;-79
2021/09/23 05:12:40;;;;;;;35.47;25.07;;;11.30;99.90;;;;;;5032746;28;20495;-78
2021/09/23 05:15:08;;;;;;;35.13;25.47;;;11.30;99.90;;;;;;5031954;28;20492;-78
2021/09/23 05:17:34;;;;;;;35.93;26.30;;;11.30;99.90;;;;;;5031957;28;20933;-77
2021/09/23 05:20:01;;;;;;;37.53;26.90;;;11.30;99.90;;;;;;5032311;28;20529;-77
2021/09/23 05:22:29;;;;;;;35.17;26.60;;;11.40;99.90;;;;;;5031995;28;20503;-78
2021/09/23 05:24:55;;;;;;;35.90;26.73;;;11.40;99.90;;;;;;5032034;28;20616;-78
2021/09/23 05:27:22;;;;;;;33.90;25.07;;;11.40;99.90;;;;;;5032494;28;20472;-78
2021/09/23 05:29:49;;;;;;;39.17;27.17;;;11.50;99.90;;;;;;5032500;28;20884;-78
2021/09/23 05:32:16;;;;;;;37.20;26.80;;;11.50;99.90;;;;;;5032375;28;20457;-78
2021/09/23 05:34:42;;;;;;;34.50;25.50;;;11.60;99.90;;;;;;5032354;28;21031;-78
2021/09/23 05:37:09;;;;;;;34.80;27.07;;;11.60;99.90;;;;;;5032147;28;20442;-78
2021/09/23 05:39:37;;;;;;;39.20;28.23;;;11.60;99.90;;;;;;5032341;28;20445;-78
2021/09/23 05:42:04;;;;;;;36.30;26.10;;;11.70;99.90;;;;;;5031465;28;20480;-78
2021/09/23 05:44:31;;;;;;;37.30;25.87;;;11.70;99.90;;;;;;5031984;28;20564;-78
2021/09/23 05:46:57;;;;;;;41.00;27.37;;;11.80;99.90;;;;;;5032371;28;20473;-78
2021/09/23 05:49:24;;;;;;;37.03;28.17;;;11.90;99.90;;;;;;5032196;28;20485;-78
2021/09/23 05:51:51;;;;;;;34.73;26.03;;;12.00;99.90;;;;;;5015669;28;20537;-78
2021/09/23 05:54:18;;;;;;;41.13;26.60;;;12.10;99.90;;;;;;5032261;28;20445;-78
2021/09/23 05:56:46;;;;;;;34.07;26.30;;;12.10;99.90;;;;;;5032243;28;20856;-78
2021/09/23 05:59:13;;;;;;;35.10;25.00;;;12.20;99.90;;;;;;5036051;28;20476;-79
2021/09/23 06:01:39;;;;;;;40.60;27.10;;;12.30;99.90;;;;;;5035841;28;20476;-79
2021/09/23 06:04:06;;;;;;;37.47;27.10;;;12.30;99.90;;;;;;5035752;28;20498;-78
2021/09/23 06:06:33;;;;;;;31.13;25.47;;;12.40;99.90;;;;;;5035841;28;21018;-78
2021/09/23 06:09:00;;;;;;;39.33;27.00;;;12.50;99.90;;;;;;5036076;28;20539;-78
2021/09/23 06:11:26;;;;;;;33.47;25.17;;;12.60;99.90;;;;;;5035514;28;20445;-78
2021/09/23 06:13:54;;;;;;;41.73;28.30;;;12.70;99.90;;;;;;5035846;28;20445;-78
2021/09/23 06:16:21;;;;;;;34.20;25.37;;;12.80;99.90;;;;;;5035658;28;20476;-78
2021/09/23 06:18:47;;;;;;;35.17;26.10;;;12.90;99.90;;;;;;5035705;28;20540;-78
2021/09/23 06:21:14;;;;;;;33.43;26.03;;;13.00;99.90;;;;;;5035893;28;20477;-78
2021/09/23 06:23:41;;;;;;;33.07;26.00;;;13.10;99.90;;;;;;5035753;28;20483;-78
2021/09/23 06:26:07;;;;;;;33.77;24.70;;;13.20;99.90;;;;;;5035616;28;20564;-78
2021/09/23 06:28:34;;;;;;;31.17;25.07;;;13.20;99.90;;;;;;5035678;28;20607;-78
2021/09/23 06:31:02;;;;;;;32.87;25.13;;;13.20;99.90;;;;;;5035236;28;20940;-78
2021/09/23 06:33:34;;;;;;;36.87;25.00;;;13.20;99.90;;;;;;5035298;28;20453;-78
2021/09/23 06:36:01;;;;;;;30.67;24.30;;;13.20;99.90;;;;;;5035071;28;20453;-78
2021/09/23 06:38:28;;;;;;;30.20;24.67;;;13.30;99.90;;;;;;5035249;28;21008;-78
2021/09/23 06:40:55;;;;;;;31.33;24.97;;;13.50;99.90;;;;;;5035355;28;20647;-78
2021/09/23 06:43:22;;;;;;;35.00;25.03;;;13.80;99.90;;;;;;5035319;28;20539;-78
2021/09/23 06:45:49;;;;;;;29.83;22.53;;;14.00;99.90;;;;;;5034861;28;20520;-79
2021/09/23 06:48:17;;;;;;;32.50;25.17;;;14.20;99.90;;;;;;5035343;28;20457;-78
2021/09/23 06:50:44;;;;;;;29.10;22.10;;;14.50;99.90;;;;;;5035288;28;20507;-79
2021/09/23 06:53:10;;;;;;;28.23;21.83;;;14.60;99.90;;;;;;5035352;28;20536;-78
2021/09/23 06:55:37;;;;;;;28.67;22.77;;;14.60;99.90;;;;;;5035070;28;20499;-78
2021/09/23 06:58:04;;;;;;;25.63;22.13;;;14.50;99.90;;;;;;5035148;28;20480;-78
2021/09/23 07:00:30;;;;;;;30.30;23.00;;;14.50;99.90;;;;;;5034795;28;20572;-79
2021/09/23 07:02:57;;;;;;;28.33;23.20;;;14.60;99.90;;;;;;5034953;28;20536;-79
2021/09/23 07:05:25;;;;;;;29.40;23.60;;;14.70;99.90;;;;;;5034847;28;20590;-78
2021/09/23 07:07:51;;;;;;;34.17;25.50;;;14.70;99.90;;;;;;5018650;28;20477;-78
2021/09/23 07:10:18;;;;;;;32.97;24.00;;;14.80;99.90;;;;;;5035097;28;20536;-78
2021/09/23 07:12:44;;;;;;;27.20;23.40;;;14.90;99.90;;;;;;5034755;28;21035;-79
2021/09/23 07:15:12;;;;;;;28.90;20.80;;;14.90;99.90;;;;;;5034755;28;20480;-78
2021/09/23 07:17:38;;;;;;;29.67;21.63;;;14.80;99.90;;;;;;5034894;28;20484;-78
2021/09/23 07:20:06;;;;;;;29.73;22.80;;;14.60;99.90;;;;;;5034870;28;20964;-78
2021/09/23 07:22:34;;;;;;;33.00;22.63;;;14.50;99.90;;;;;;5034564;28;20903;-78
2021/09/23 07:25:01;;;;;;;31.20;23.87;;;14.50;99.90;;;;;;5034596;28;20561;-78
2021/09/23 07:27:27;;;;;;;26.60;21.93;;;14.60;99.90;;;;;;5034486;28;20492;-78
2021/09/23 07:29:54;;;;;;;30.37;24.03;;;14.80;99.90;;;;;;5034905;28;20540;-78
2021/09/23 07:32:22;;;;;;;26.87;23.57;;;15.00;99.90;;;;;;5034525;28;20477;-78
2021/09/23 07:34:48;;;;;;;30.43;23.30;;;15.20;99.90;;;;;;5034553;28;20446;-78
2021/09/23 07:37:15;;;;;;;26.83;22.50;;;15.40;99.90;;;;;;5034249;28;21015;-78
2021/09/23 07:39:43;;;;;;;26.30;22.13;;;15.60;99.90;;;;;;5034355;28;21047;-78
2021/09/23 07:42:10;;;;;;;27.47;20.90;;;15.80;99.90;;;;;;5034006;28;20453;-78
2021/09/23 07:44:36;;;;;;;29.10;23.17;;;15.80;99.90;;;;;;5034129;28;21059;-78
2021/09/23 07:47:04;;;;;;;32.20;22.43;;;15.90;99.90;;;;;;5034354;28;20457;-79
2021/09/23 07:49:30;;;;;;;32.90;23.67;;;15.90;99.90;;;;;;5034455;28;20445;-79
2021/09/23 07:51:57;;;;;;;31.10;21.63;;;16.00;99.90;;;;;;5034105;28;20476;-78
2021/09/23 07:54:23;;;;;;;25.80;22.53;;;16.10;99.90;;;;;;5034194;28;20446;-79
2021/09/23 07:56:51;;;;;;;31.93;23.50;;;16.20;99.90;;;;;;5034030;28;20881;-78
2021/09/23 07:59:18;;;;;;;29.23;23.77;;;16.30;99.90;;;;;;5034082;28;20488;-78
2021/09/23 08:01:44;;;;;;;27.07;22.67;;;16.40;99.90;;;;;;5033745;28;20541;-78
2021/09/23 08:04:11;;;;;;;27.30;20.87;;;16.50;99.90;;;;;;5034022;28;20446;-78
2021/09/23 08:06:37;;;;;;;27.50;20.80;;;16.70;99.90;;;;;;5033369;28;21052;-78
2021/09/23 08:09:05;;;;;;;32.67;22.07;;;17.00;99.90;;;;;;5033709;28;20480;-79
2021/09/23 08:11:31;;;;;;;25.37;19.27;;;17.20;99.90;;;;;;5033736;28;20453;-79
2021/09/23 08:13:59;;;;;;;25.57;17.10;;;17.50;99.90;;;;;;5033403;28;21035;-78
2021/09/23 08:16:26;;;;;;;21.97;19.50;;;17.70;99.90;;;;;;5033647;28;20540;-78
2021/09/23 08:18:52;;;;;;;25.63;20.60;;;18.00;99.90;;;;;;5033728;28;20503;-78
2021/09/23 08:21:19;;;;;;;26.00;19.07;;;18.20;99.90;;;;;;5032811;28;20484;-76
2021/09/23 08:23:45;;;;;;;24.90;19.53;;;18.40;99.90;;;;;;5024542;28;20541;-77
2021/09/23 08:26:12;;;;;;;24.63;18.20;;;18.60;99.90;;;;;;5032309;28;21045;-77
2021/09/23 08:28:38;;;;;;;23.00;17.33;;;18.70;99.90;;;;;;5032740;28;20500;-77
2021/09/23 08:31:08;;;;;;;21.03;18.30;;;18.80;99.90;;;;;;5032582;28;20599;-77
2021/09/23 08:33:34;;;;;;;22.00;18.40;;;18.90;99.90;;;;;;5032474;28;20582;-76
2021/09/23 08:36:01;;;;;;;19.03;16.40;;;19.00;99.90;;;;;;5032869;28;20576;-77
2021/09/23 08:38:28;;;;;;;22.80;18.00;;;19.00;99.90;;;;;;5032469;28;20504;-77
2021/09/23 08:40:55;;;;;;;22.20;16.97;;;18.90;99.90;;;;;;5032684;28;20485;-77
2021/09/23 08:43:21;;;;;;;18.73;15.40;;;18.90;99.90;;;;;;5032474;28;20449;-77
2021/09/23 08:45:48;;;;;;;19.97;15.87;;;18.90;99.90;;;;;;5031616;28;20572;-77
2021/09/23 08:48:16;;;;;;;21.30;16.00;;;18.90;99.90;;;;;;5031789;28;20477;-77
2021/09/23 08:50:43;;;;;;;19.60;15.30;;;19.10;99.90;;;;;;5031452;28;20450;-77
2021/09/23 08:53:09;;;;;;;21.63;16.10;;;19.20;99.90;;;;;;5031533;28;20503;-77
2021/09/23 08:55:36;;;;;;;19.10;15.27;;;19.30;99.90;;;;;;5031688;28;20449;-76
2021/09/23 08:58:05;;;;;;;18.87;14.03;;;19.30;99.90;;;;;;5031727;28;20445;-76
2021/09/23 09:00:33;;;;;;;18.73;14.70;;;19.20;99.90;;;;;;5031534;28;20468;-76
2021/09/23 09:03:01;;;;;;;19.57;14.03;;;19.20;99.90;;;;;;5031231;28;20536;-76
2021/09/23 09:05:29;;;;;;;17.63;13.57;;;19.00;99.90;;;;;;5031055;28;20543;-76
2021/09/23 09:08:01;;;;;;;16.50;13.00;;;18.90;99.90;;;;;;5031283;28;20540;-77
2021/09/23 09:10:28;;;;;;;18.77;13.63;;;18.80;99.90;;;;;;5031510;28;20445;-77
2021/09/23 09:12:55;;;;;;;14.90;12.80;;;18.70;99.90;;;;;;5031046;28;21038;-77
2021/09/23 09:15:29;;;;;;;17.13;14.00;;;18.70;99.90;;;;;;5031425;28;20536;-76
2021/09/23 09:17:56;;;;;;;16.37;12.03;;;18.80;99.90;;;;;;5031201;28;20476;-76
2021/09/23 09:20:22;;;;;;;15.90;12.43;;;18.90;99.90;;;;;;5031484;28;20476;-76
2021/09/23 09:22:50;;;;;;;18.23;13.83;;;19.00;99.90;;;;;;5031179;28;20481;-77
2021/09/23 09:25:17;;;;;;;14.77;11.40;;;19.10;99.90;;;;;;5031237;28;20544;-76
2021/09/23 09:27:45;;;;;;;16.20;12.40;;;19.10;99.90;;;;;;5031033;28;20860;-76
2021/09/23 09:30:15;;;;;;;13.50;10.80;;;19.20;99.90;;;;;;5031204;28;20518;-76
2021/09/23 09:32:46;;;;;;;18.10;11.50;;;19.20;99.90;;;;;;5029577;28;20481;-76
2021/09/23 09:35:16;;;;;;;15.10;11.00;;;19.20;99.90;;;;;;5031203;28;20449;-76
2021/09/23 09:37:46;;;;;;;12.67;9.93;;;19.30;99.90;;;;;;5031190;28;20523;-76
2021/09/23 09:40:17;;;;;;;17.97;11.80;;;19.30;99.90;;;;;;5031281;28;20540;-76
2021/09/23 09:42:45;;;;;;;13.27;10.40;;;19.30;99.90;;;;;;5030956;28;20449;-76
2021/09/23 09:45:18;;;;;;;13.07;10.57;;;19.40;99.90;;;;;;4997671;28;970241;-76
2021/09/23 09:47:52;;;;;;;16.37;10.77;;;19.50;99.90;;;;;;5031636;28;20885;-76
2021/09/23 09:50:20;;;;;;;11.37;9.90;;;19.50;99.90;;;;;;5031970;28;20536;-76
2021/09/23 09:52:54;;;;;;;11.10;9.70;;;19.60;99.90;;;;;;5031416;28;20531;-77
2021/09/23 09:55:23;;;;;;;16.10;11.57;;;19.80;99.90;;;;;;5031625;28;20441;-77
2021/09/23 09:57:51;;;;;;;9.87;8.87;;;19.80;99.90;;;;;;5031815;28;20936;-76
2021/09/23 10:00:18;;;;;;;13.00;9.67;;;19.80;99.90;;;;;;5031821;28;20441;-77
2021/09/23 10:02:45;;;;;;;16.43;10.70;;;19.70;99.90;;;;;;5031473;28;20473;-76
2021/09/23 10:05:13;;;;;;;12.90;9.67;;;19.80;99.90;;;;;;5031678;28;20477;-76
2021/09/23 10:07:41;;;;;;;14.43;10.37;;;19.90;99.90;;;;;;5031546;28;20477;-76
2021/09/23 10:10:10;;;;;;;13.20;9.70;;;19.80;99.90;;;;;;5031857;28;20596;-76
2021/09/23 10:12:40;;;;;;;14.63;10.33;;;19.80;99.90;;;;;;5031470;28;20449;-77
2021/09/23 10:15:08;;;;;;;12.27;9.50;;;19.80;99.90;;;;;;5031376;28;20488;-76
2021/09/23 10:17:36;;;;;;;10.83;9.70;;;19.90;99.90;;;;;;5031679;28;20488;-77
2021/09/23 10:20:05;;;;;;;15.37;9.00;;;20.10;99.90;;;;;;5031319;28;20487;-76
2021/09/23 10:22:32;;;;;;;9.03;8.10;;;20.30;99.90;;;;;;5031396;28;20477;-77
2021/09/23 10:25:01;;;;;;;12.77;8.80;;;20.70;99.90;;;;;;5031304;28;20552;-77
2021/09/23 10:30:15;;;;;;;9.50;8.50;;;21.10;99.90;;;;;;5031479;28;20452;-77
2021/09/23 10:32:42;;;;;;;11.10;9.00;;;21.20;99.90;;;;;;5031255;28;20536;-77
2021/09/23 10:35:09;;;;;;;10.80;8.77;;;21.20;99.90;;;;;;5031122;28;20491;-78
2021/09/23 10:37:38;;;;;;;9.97;8.93;;;21.10;99.90;;;;;;5031075;28;20856;-77
2021/09/23 10:40:06;;;;;;;9.60;8.60;;;21.10;99.90;;;;;;5031295;28;20441;-77
2021/09/23 10:42:33;;;;;;;10.77;8.50;;;21.10;99.90;;;;;;5031240;28;20876;-77
2021/09/23 10:45:04;;;;;;;13.57;8.43;;;21.10;99.90;;;;;;5033980;28;20639;-77
2021/09/23 10:47:34;;;;;;;12.67;9.27;;;21.10;99.90;;;;;;5034242;28;20499;-77
2021/09/23 10:50:02;;;;;;;9.00;7.90;;;21.10;99.90;;;;;;5034650;28;20944;-77
2021/09/23 10:52:31;;;;;;;9.17;6.23;;;21.10;99.90;;;;;;5034243;28;21030;-77
2021/09/23 10:54:58;;;;;;;9.40;8.07;;;21.20;99.90;;;;;;5034546;28;20449;-77
2021/09/23 10:57:29;;;;;;;11.80;7.13;;;21.20;99.90;;;;;;5034684;28;20941;-77
2021/09/23 10:59:56;;;;;;;8.77;5.73;;;21.30;99.90;;;;;;5025639;28;20469;-77
2021/09/23 11:02:24;;;;;;;7.67;6.40;;;21.20;99.90;;;;;;5034674;28;20536;-78
2021/09/23 11:04:54;;;;;;;8.00;6.70;;;21.30;99.90;;;;;;5033924;28;20937;-77
2021/09/23 11:07:23;;;;;;;9.30;6.63;;;21.40;99.90;;;;;;5034441;28;20572;-77
2021/09/23 11:10:07;;;;;;;7.80;6.70;;;21.50;99.90;;;;;;5034171;28;20477;-77
2021/09/23 11:12:35;;;;;;;8.57;5.87;;;21.40;99.90;;;;;;5034082;28;20492;-77
2021/09/23 11:15:04;;;;;;;8.77;6.60;;;21.50;99.90;;;;;;5034067;28;20480;-76
2021/09/23 11:17:31;;;;;;;11.30;6.00;;;21.60;99.90;;;;;;5034030;28;20972;-76
2021/09/23 11:20:01;;;;;;;7.80;6.37;;;21.60;99.90;;;;;;5033981;28;20519;-76
2021/09/23 11:22:36;;;;;;;11.70;6.17;;;21.60;99.90;;;;;;5034192;28;20479;-76
2021/09/23 11:25:06;;;;;;;6.40;5.27;;;21.50;99.90;;;;;;5033938;28;20444;-76
2021/09/23 11:27:34;;;;;;;6.73;5.70;;;21.50;99.90;;;;;;5033822;28;20485;-76
2021/09/23 11:30:00;;;;;;;5.97;5.13;;;21.60;99.90;;;;;;5034048;28;20536;-76
2021/09/23 11:32:27;;;;;;;7.87;4.93;;;21.70;99.90;;;;;;5034048;28;20532;-76
2021/09/23 11:34:59;;;;;;;9.17;5.23;;;21.90;99.90;;;;;;5033660;28;20873;-76
2021/09/23 11:37:31;;;;;;;6.20;5.00;;;22.10;99.90;;;;;;5033500;28;20507;-76
2021/09/23 11:39:59;;;;;;;8.30;5.30;;;22.10;99.90;;;;;;5033835;28;20453;-75
2021/09/23 11:42:28;;;;;;;5.83;4.37;;;22.20;99.90;;;;;;5033671;28;20968;-75
2021/09/23 11:45:05;;;;;;;7.37;4.93;;;22.20;99.90;;;;;;5033332;28;20600;-76
2021/09/23 11:47:32;;;;;;;6.00;4.20;;;22.30;99.90;;;;;;5033584;28;20571;-76
2021/09/23 11:50:00;;;;;;;4.23;3.67;;;22.30;99.90;;;;;;5033258;28;20818;-75
2021/09/23 11:52:32;;;;;;;4.60;3.90;;;22.20;99.90;;;;;;5033705;28;20536;-76
2021/09/23 11:55:00;;;;;;;8.70;4.27;;;22.10;99.90;;;;;;5032438;28;20449;-75
2021/09/23 11:57:28;;;;;;;4.00;3.60;;;22.10;99.90;;;;;;5033579;28;20449;-75
2021/09/23 11:59:55;;;;;;;5.87;3.73;;;22.10;99.90;;;;;;5033606;28;20786;-76
2021/09/23 12:02:21;;;;;;;3.03;2.83;;;22.10;99.90;;;;;;5033300;28;21024;-75
2021/09/23 12:04:53;;;;;;;3.40;2.93;;;22.10;99.90;;;;;;5032787;28;20476;-75
2021/09/23 12:07:21;;;;;;;2.83;2.63;;;22.00;99.90;;;;;;5033423;28;20488;-76
2021/09/23 12:10:02;;;;;;;3.60;2.80;;;22.00;99.90;;;;;;5032944;28;20483;-75
2021/09/23 12:12:28;;;;;;;6.77;3.50;;;21.90;99.90;;;;;;5032980;28;20834;-75
2021/09/23 12:14:55;;;;;;;4.70;3.17;;;21.80;99.90;;;;;;5032775;28;20560;-76
2021/09/23 12:17:22;;;;;;;6.43;2.77;;;21.80;99.90;;;;;;5032903;28;20449;-76
2021/09/23 12:19:53;;;;;;;2.77;2.57;;;21.90;99.90;;;;;;5032807;28;20485;-75
2021/09/23 12:22:32;;;;;;;2.47;2.20;;;21.80;99.90;;;;;;5033045;28;20814;-75
2021/09/23 12:24:59;;;;;;;3.37;2.40;;;21.80;99.90;;;;;;5032618;28;20591;-75
2021/09/23 12:27:27;;;;;;;2.47;2.33;;;21.80;99.90;;;;;;5032596;28;20509;-75
2021/09/23 12:29:56;;;;;;;4.87;2.70;;;21.80;99.90;;;;;;5029559;28;20545;-75
2021/09/23 12:32:31;;;;;;;3.00;2.40;;;22.00;99.90;;;;;;5032740;28;20867;-75
2021/09/23 12:34:58;;;;;;;2.67;1.90;;;22.00;99.90;;;;;;5032238;28;20452;-75
2021/09/23 12:37:25;;;;;;;2.60;2.30;;;22.00;99.90;;;;;;5032657;28;20534;-75